createdAt,value
2023-02-13T00:01:27.327Z,99609.66
2023-02-13T00:03:55.623Z,99607.09
2023-02-13T00:06:24.628Z,99603.66
2023-02-13T00:08:52.954Z,99607.16
2023-02-13T00:11:21.632Z,99608.91
2023-02-13T00:13:49.915Z,99610.66
2023-02-13T00:16:19.587Z,99608.09
2023-02-13T00:18:47.859Z,99611.53
2023-02-13T00:21:16.137Z,99598.41
2023-02-13T00:23:44.354Z,99600.13
2023-02-13T00:26:15.390Z,99594.06
2023-02-13T00:28:44.023Z,99598.34
2023-02-13T00:31:15.151Z,99595.84
2023-02-13T00:33:45.116Z,99587.19
2023-02-13T00:36:17.936Z,99588.94
2023-02-13T00:38:46.575Z,99591.78
2023-02-13T00:41:16.668Z,99581.31
2023-02-13T00:43:45.422Z,99578.75
2023-02-13T00:46:13.869Z,99593.59
2023-02-13T00:48:44.174Z,99589.28
2023-02-13T00:51:13.203Z,99594.53
2023-02-13T00:53:41.501Z,99584.06
2023-02-13T00:56:09.933Z,99591.09
2023-02-13T00:58:38.985Z,99598.97
2023-02-13T01:01:07.498Z,99602.47
2023-02-13T01:03:36.112Z,99605.16
2023-02-13T01:06:07.030Z,99602.59
2023-02-13T01:08:35.844Z,99601.81
2023-02-13T01:11:04.154Z,99610.53
2023-02-13T01:13:32.455Z,99607.06
2023-02-13T01:16:01.412Z,99618.53
2023-02-13T01:18:30.145Z,99612.47
2023-02-13T01:21:01.800Z,99615.16
2023-02-13T01:23:37.407Z,99602.97
2023-02-13T01:26:07.892Z,99611.97
2023-02-13T01:28:36.737Z,99608.47
2023-02-13T01:31:05.221Z,99614.66
2023-02-13T01:33:34.641Z,99613.00
2023-02-13T01:36:09.003Z,99620.97
2023-02-13T01:38:38.775Z,99622.91
2023-02-13T01:41:07.513Z,99622.22
2023-02-13T01:43:51.352Z,99620.63
2023-02-13T01:46:25.960Z,99615.50
2023-02-13T01:49:07.122Z,99618.25
2023-02-13T01:51:37.371Z,99618.38
2023-02-13T01:54:10.428Z,99618.44
2023-02-13T01:56:45.189Z,99626.31
2023-02-13T01:59:16.434Z,99615.88
2023-02-13T02:01:45.425Z,99601.16
2023-02-13T02:04:18.118Z,99607.34
2023-02-13T02:06:53.323Z,99604.72
2023-02-13T02:09:40.621Z,99594.34
2023-02-13T02:12:18.939Z,99597.06
2023-02-13T02:14:47.236Z,99599.81
2023-02-13T02:17:15.635Z,99595.47
2023-02-13T02:19:50.827Z,99598.22
2023-02-13T02:22:53.718Z,99600.94
2023-02-13T02:26:38.810Z,99588.88
2023-02-13T02:29:30.739Z,99585.50
2023-02-13T02:32:33.130Z,99579.41
2023-02-13T02:35:18.279Z,99586.38
2023-02-13T02:38:04.938Z,99593.31
2023-02-13T02:40:44.857Z,99592.47
2023-02-13T02:43:31.561Z,99589.84
2023-02-13T02:46:10.108Z,99590.63
2023-02-13T02:49:07.918Z,99586.31
2023-02-13T02:51:47.775Z,99591.56
2023-02-13T02:54:41.334Z,99590.63
2023-02-13T02:57:15.317Z,99587.06
2023-02-13T03:00:02.647Z,99580.00
2023-02-13T03:02:49.385Z,99589.63
2023-02-13T03:05:40.530Z,99582.63
2023-02-13T03:08:09.273Z,99580.06
2023-02-13T03:10:57.275Z,99582.69
2023-02-13T03:13:42.422Z,99578.44
2023-02-13T03:16:34.859Z,99581.13
2023-02-13T03:19:20.548Z,99571.50
2023-02-13T03:22:15.543Z,99568.91
2023-02-13T03:24:59.790Z,99570.56
2023-02-13T03:27:59.811Z,99574.00
2023-02-13T03:30:41.810Z,99567.94
2023-02-13T03:33:25.292Z,99570.50
2023-02-13T03:36:21.099Z,99572.19
2023-02-13T03:38:58.566Z,99570.44
2023-02-13T03:41:31.923Z,99566.06
2023-02-13T03:44:11.040Z,99571.25
2023-02-13T03:46:44.098Z,99570.31
2023-02-13T03:49:37.419Z,99570.31
2023-02-13T03:52:11.523Z,99556.34
2023-02-13T03:55:03.364Z,99562.44
2023-02-13T03:57:52.701Z,99563.31
2023-02-13T04:00:22.993Z,99568.56
2023-02-13T04:03:03.217Z,99575.50
2023-02-13T04:05:37.047Z,99577.34
2023-02-13T04:08:06.046Z,99575.56
2023-02-13T04:10:40.525Z,99579.97
2023-02-13T04:13:17.603Z,99582.63
2023-02-13T04:15:53.764Z,99581.75
2023-02-13T04:18:25.957Z,99578.31
2023-02-13T04:20:54.622Z,99577.34
2023-02-13T04:23:22.889Z,99577.34
2023-02-13T04:25:55.560Z,99582.47
2023-02-13T04:28:23.990Z,99570.22
2023-02-13T04:30:52.345Z,99578.94
2023-02-13T04:33:20.716Z,99577.16
2023-02-13T04:35:48.950Z,99579.78
2023-02-13T04:38:17.185Z,99566.66
2023-02-13T04:40:45.473Z,99584.97
2023-02-13T04:43:15.127Z,99589.31
2023-02-13T04:45:43.383Z,99585.84
2023-02-13T04:48:11.662Z,99586.69
2023-02-13T04:50:39.922Z,99591.94
2023-02-13T04:53:08.313Z,99584.06
2023-02-13T04:55:36.786Z,99583.22
2023-02-13T04:58:05.079Z,99584.13
2023-02-13T05:00:34.669Z,99583.25
2023-02-13T05:03:07.224Z,99578.06
2023-02-13T05:05:35.980Z,99574.59
2023-02-13T05:08:04.636Z,99575.75
2023-02-13T05:10:33.006Z,99579.28
2023-02-13T05:13:01.313Z,99581.91
2023-02-13T05:15:29.757Z,99578.50
2023-02-13T05:17:59.406Z,99575.88
2023-02-13T05:20:27.653Z,99571.50
2023-02-13T05:23:13.884Z,99585.44
2023-02-13T05:25:43.285Z,99581.13
2023-02-13T05:28:32.613Z,99575.88
2023-02-13T05:31:00.317Z,99570.69
2023-02-13T05:33:30.291Z,99573.53
2023-02-13T05:35:58.592Z,99583.22
2023-02-13T05:38:26.830Z,99582.38
2023-02-13T05:40:55.590Z,99585.00
2023-02-13T05:43:24.114Z,99586.72
2023-02-13T05:45:52.861Z,99592.88
2023-02-13T05:48:21.123Z,99591.09
2023-02-13T05:50:50.730Z,99588.47
2023-02-13T05:53:18.966Z,99592.06
2023-02-13T05:55:48.196Z,99594.69
2023-02-13T05:58:16.387Z,99600.06
2023-02-13T06:00:44.631Z,99598.41
2023-02-13T06:03:12.855Z,99610.78
2023-02-13T06:05:41.266Z,99606.47
2023-02-13T06:08:10.848Z,99604.81
2023-02-13T06:10:39.337Z,99613.53
2023-02-13T06:13:07.573Z,99617.00
2023-02-13T06:15:35.875Z,99613.56
2023-02-13T06:18:04.169Z,99617.06
2023-02-13T06:20:32.504Z,99621.38
2023-02-13T06:23:00.877Z,99622.19
2023-02-13T06:25:30.799Z,99628.38
2023-02-13T06:27:59.048Z,99627.50
2023-02-13T06:30:27.445Z,99623.19
2023-02-13T06:32:55.720Z,99631.81
2023-02-13T06:35:24.099Z,99640.56
2023-02-13T06:37:52.568Z,99646.72
2023-02-13T06:40:21.320Z,99653.66
2023-02-13T06:42:50.977Z,99655.31
2023-02-13T06:45:19.513Z,99659.78
2023-02-13T06:47:50.287Z,99651.09
2023-02-13T06:50:19.386Z,99658.09
2023-02-13T06:52:48.795Z,99660.91
2023-02-13T06:55:17.804Z,99651.50
2023-02-13T06:57:46.787Z,99658.72
2023-02-13T07:00:19.285Z,99663.22
2023-02-13T07:02:48.674Z,99668.56
2023-02-13T07:05:16.991Z,99673.97
2023-02-13T07:07:45.347Z,99677.50
2023-02-13T07:10:15.559Z,99683.09
2023-02-13T07:12:45.801Z,99674.47
2023-02-13T07:15:19.165Z,99680.72
2023-02-13T07:17:47.403Z,99685.22
2023-02-13T07:20:15.759Z,99689.63
2023-02-13T07:22:43.991Z,99695.84
2023-02-13T07:25:12.235Z,99688.91
2023-02-13T07:27:41.638Z,99690.66
2023-02-13T07:30:11.207Z,99703.75
2023-02-13T07:32:40.831Z,99700.22
2023-02-13T07:35:09.419Z,99705.50
2023-02-13T07:37:37.680Z,99708.19
2023-02-13T07:40:07.501Z,99703.00
2023-02-13T07:42:36.187Z,99707.50
2023-02-13T07:45:07.550Z,99703.97
2023-02-13T07:47:36.058Z,99715.31
2023-02-13T07:50:06.966Z,99709.97
2023-02-13T07:52:37.132Z,99708.94
2023-02-13T07:55:05.967Z,99701.91
2023-02-13T07:57:35.147Z,99699.13
2023-02-13T08:00:04.419Z,99695.53
2023-02-13T08:02:32.745Z,99698.06
2023-02-13T08:05:01.047Z,99696.16
2023-02-13T08:07:31.547Z,99697.78
2023-02-13T08:10:17.217Z,99694.16
2023-02-13T08:12:45.974Z,99699.22
2023-02-13T08:15:16.312Z,99698.31
2023-02-13T08:17:44.648Z,99696.50
2023-02-13T08:20:13.525Z,99692.13
2023-02-13T08:22:43.219Z,99700.72
2023-02-13T08:25:11.683Z,99703.28
2023-02-13T08:27:40.455Z,99701.53
2023-02-13T08:30:11.616Z,99706.78
2023-02-13T08:32:53.520Z,99705.81
2023-02-13T08:35:26.610Z,99708.41
2023-02-13T08:37:56.345Z,99711.09
2023-02-13T08:40:25.981Z,99706.66
2023-02-13T08:42:55.864Z,99707.47
2023-02-13T08:45:25.197Z,99714.53
2023-02-13T08:47:57.176Z,99707.69
2023-02-13T08:50:25.920Z,99711.91
2023-02-13T08:52:55.714Z,99712.84
2023-02-13T08:55:24.075Z,99705.81
2023-02-13T08:57:52.365Z,99709.50
2023-02-13T09:00:22.147Z,99700.56
2023-02-13T09:02:50.463Z,99709.19
2023-02-13T09:05:18.918Z,99702.91
2023-02-13T09:07:47.285Z,99706.25
2023-02-13T09:10:17.189Z,99707.00
2023-02-13T09:12:45.462Z,99705.00
2023-02-13T09:15:13.777Z,99703.97
2023-02-13T09:17:42.039Z,99709.78
2023-02-13T09:20:12.714Z,99707.13
2023-02-13T09:22:41.163Z,99708.41
2023-02-13T09:25:10.392Z,99708.13
2023-02-13T09:27:40.204Z,99710.41
2023-02-13T09:30:10.413Z,99713.56
2023-02-13T09:32:38.891Z,99707.09
2023-02-13T09:35:07.555Z,99709.38
2023-02-13T09:37:35.896Z,99702.91
2023-02-13T09:40:04.286Z,99711.34
2023-02-13T09:42:36.912Z,99710.13
2023-02-13T09:45:10.021Z,99711.34
2023-02-13T09:47:41.409Z,99711.75
2023-02-13T09:50:18.800Z,99705.16
2023-02-13T09:52:48.152Z,99701.22
2023-02-13T09:55:18.890Z,99698.13
2023-02-13T09:57:54.552Z,99696.84
2023-02-13T10:00:30.895Z,99693.84
2023-02-13T10:03:20.373Z,99692.66
2023-02-13T10:05:58.244Z,99700.56
2023-02-13T10:08:59.218Z,99707.00
2023-02-13T10:12:02.377Z,99701.41
2023-02-13T10:14:38.528Z,99697.78
2023-02-13T10:17:14.153Z,99698.50
2023-02-13T10:19:48.287Z,99697.53
2023-02-13T10:22:19.709Z,99698.03
2023-02-13T10:24:53.018Z,99703.16
2023-02-13T10:27:26.421Z,99695.41
2023-02-13T10:30:09.635Z,99706.38
2023-02-13T10:32:47.951Z,99694.84
2023-02-13T10:35:25.559Z,99692.94
2023-02-13T10:37:57.837Z,99693.75
2023-02-13T10:40:33.605Z,99699.00
2023-02-13T10:43:10.029Z,99691.81
2023-02-13T10:45:56.407Z,99694.31
2023-02-13T10:48:44.426Z,99686.34
2023-02-13T10:51:21.052Z,99686.28
2023-02-13T10:54:12.616Z,99688.69
2023-02-13T10:56:48.434Z,99682.88
2023-02-13T10:59:38.828Z,99679.31
2023-02-13T11:02:24.167Z,99682.75
2023-02-13T11:04:59.954Z,99682.53
2023-02-13T11:07:28.839Z,99681.66
2023-02-13T11:10:05.316Z,99681.59
2023-02-13T11:12:35.764Z,99671.81
2023-02-13T11:15:08.338Z,99678.81
2023-02-13T11:17:43.121Z,99678.69
2023-02-13T11:20:33.946Z,99675.97
2023-02-13T11:23:35.997Z,99675.84
2023-02-13T11:26:09.168Z,99685.66
2023-02-13T11:28:40.201Z,99684.38
2023-02-13T11:31:24.049Z,99685.16
2023-02-13T11:33:52.570Z,99681.31
2023-02-13T11:36:29.144Z,99678.53
2023-02-13T11:39:06.033Z,99677.50
2023-02-13T11:41:42.135Z,99683.31
2023-02-13T11:44:24.279Z,99681.25
2023-02-13T11:46:55.191Z,99684.66
2023-02-13T11:49:25.956Z,99678.94
2023-02-13T11:51:58.121Z,99677.25
2023-02-13T11:54:32.561Z,99682.22
2023-02-13T11:57:05.291Z,99676.72
2023-02-13T11:59:41.728Z,99684.78
2023-02-13T12:02:20.037Z,99679.22
2023-02-13T12:04:50.644Z,99670.94
2023-02-13T12:07:24.404Z,99666.16
2023-02-13T12:10:01.959Z,99663.91
2023-02-13T12:12:39.466Z,99664.38
2023-02-13T12:15:19.563Z,99670.41
2023-02-13T12:17:56.059Z,99668.34
2023-02-13T12:20:25.339Z,99669.97
2023-02-13T12:23:06.037Z,99662.97
2023-02-13T12:26:01.168Z,99660.91
2023-02-13T12:28:50.373Z,99658.13
2023-02-13T12:31:35.837Z,99649.28
2023-02-13T12:35:02.951Z,99658.81
2023-02-13T12:37:48.538Z,99651.63
2023-02-13T12:40:50.663Z,99643.53
2023-02-13T12:43:48.117Z,99637.09
2023-02-13T12:46:23.972Z,99630.81
2023-02-13T12:49:01.787Z,99634.91
2023-02-13T12:51:45.038Z,99624.22
2023-02-13T12:54:38.010Z,99630.22
2023-02-13T12:57:23.983Z,99623.34
2023-02-13T13:00:17.554Z,99624.22
2023-02-13T13:03:10.735Z,99621.47
2023-02-13T13:06:11.439Z,99621.41
2023-02-13T13:09:07.978Z,99615.03
2023-02-13T13:12:20.467Z,99614.06
2023-02-13T13:14:56.827Z,99611.28
2023-02-13T13:17:45.290Z,99604.31
2023-02-13T13:20:53.459Z,99602.94
2023-02-13T13:23:30.712Z,99592.16
2023-02-13T13:26:07.845Z,99603.50
2023-02-13T13:28:41.976Z,99606.91
2023-02-13T13:31:11.736Z,99607.06
2023-02-13T13:33:45.486Z,99604.19
2023-02-13T13:36:22.993Z,99597.00
2023-02-13T13:39:01.616Z,99601.13
2023-02-13T13:41:39.484Z,99600.19
2023-02-13T13:44:43.065Z,99597.38
2023-02-13T13:47:26.361Z,99595.25
2023-02-13T13:49:57.076Z,99590.41
2023-02-13T13:52:28.618Z,99599.00
2023-02-13T13:55:00.517Z,99597.06
2023-02-13T13:58:01.813Z,99599.53
2023-02-13T14:00:32.714Z,99589.69
2023-02-13T14:03:25.585Z,99591.25
2023-02-13T14:06:04.857Z,99591.84
2023-02-13T14:09:40.733Z,99590.84
2023-02-13T14:12:38.901Z,99597.91
2023-02-13T14:15:45.969Z,99593.56
2023-02-13T14:18:23.110Z,99594.41
2023-02-13T14:20:58.565Z,99591.75
2023-02-13T14:23:38.623Z,99596.03
2023-02-13T14:26:34.848Z,99595.25
2023-02-13T14:29:32.891Z,99585.56
2023-02-13T14:32:18.377Z,99592.38
2023-02-13T14:34:57.884Z,99588.69
2023-02-13T14:37:35.266Z,99585.78
2023-02-13T14:40:43.323Z,99567.13
2023-02-13T14:43:30.802Z,99575.06
2023-02-13T14:46:05.376Z,99573.97
2023-02-13T14:48:42.682Z,99571.97
2023-02-13T14:51:28.593Z,99572.66
2023-02-13T14:54:02.693Z,99561.94
2023-02-13T14:56:32.849Z,99560.81
2023-02-13T14:59:17.819Z,99562.41
2023-02-13T15:01:52.995Z,99566.50
2023-02-13T15:04:28.042Z,99565.47
2023-02-13T15:06:59.041Z,99563.59
2023-02-13T15:09:34.485Z,99566.00
2023-02-13T15:12:03.109Z,99570.22
2023-02-13T15:14:37.401Z,99561.25
2023-02-13T15:17:12.050Z,99555.88
2023-02-13T15:19:46.369Z,99561.00
2023-02-13T15:22:21.595Z,99551.97
2023-02-13T15:24:51.474Z,99556.22
2023-02-13T15:27:25.389Z,99556.13
2023-02-13T15:30:01.590Z,99554.38
2023-02-13T15:32:34.193Z,99551.66
2023-02-13T15:35:02.445Z,99554.84
2023-02-13T15:37:32.307Z,99551.25
2023-02-13T15:40:25.292Z,99546.06
2023-02-13T15:42:54.596Z,99551.25
2023-02-13T15:45:27.608Z,99544.94
2023-02-13T15:47:57.063Z,99550.16
2023-02-13T15:50:31.232Z,99540.50
2023-02-13T15:53:00.196Z,99545.59
2023-02-13T15:55:32.170Z,99545.78
2023-02-13T15:58:02.363Z,99552.09
2023-02-13T16:00:37.194Z,99542.50
2023-02-13T16:03:13.068Z,99547.88
2023-02-13T16:05:41.795Z,99544.44
2023-02-13T16:08:35.314Z,99549.81
2023-02-13T16:11:29.157Z,99546.59
2023-02-13T16:14:14.350Z,99540.53
2023-02-13T16:16:53.169Z,99540.72
2023-02-13T16:19:49.891Z,99548.72
2023-02-13T16:22:34.384Z,99550.59
2023-02-13T16:25:25.093Z,99544.66
2023-02-13T16:27:56.541Z,99555.22
2023-02-13T16:30:33.441Z,99547.41
2023-02-13T16:33:23.945Z,99562.47
2023-02-13T16:35:55.189Z,99565.22
2023-02-13T16:38:36.122Z,99560.09
2023-02-13T16:41:06.939Z,99565.56
2023-02-13T16:43:46.659Z,99565.47
2023-02-13T16:46:44.454Z,99566.59
2023-02-13T16:49:24.816Z,99572.91
2023-02-13T16:52:12.472Z,99572.16
2023-02-13T16:54:55.854Z,99572.25
2023-02-13T16:57:31.334Z,99569.78
2023-02-13T17:00:09.731Z,99576.91
2023-02-13T17:02:40.008Z,99576.91
2023-02-13T17:05:23.145Z,99579.66
2023-02-13T17:07:54.631Z,99585.78
2023-02-13T17:10:27.334Z,99584.94
2023-02-13T17:12:58.286Z,99581.63
2023-02-13T17:15:28.825Z,99586.84
2023-02-13T17:17:57.171Z,99583.34
2023-02-13T17:20:29.842Z,99579.91
2023-02-13T17:22:59.751Z,99583.50
2023-02-13T17:25:31.467Z,99587.34
2023-02-13T17:28:02.465Z,99585.78
2023-02-13T17:30:34.118Z,99582.50
2023-02-13T17:33:07.613Z,99582.75
2023-02-13T17:35:37.570Z,99594.31
2023-02-13T17:38:08.348Z,99585.66
2023-02-13T17:40:37.042Z,99590.22
2023-02-13T17:43:06.463Z,99588.53
2023-02-13T17:45:36.186Z,99584.16
2023-02-13T17:48:04.979Z,99587.84
2023-02-13T17:50:36.802Z,99591.50
2023-02-13T17:53:08.553Z,99585.53
2023-02-13T17:55:37.375Z,99589.28
2023-02-13T17:58:05.741Z,99593.63
2023-02-13T18:00:35.567Z,99595.50
2023-02-13T18:03:04.555Z,99584.19
2023-02-13T18:05:33.254Z,99578.97
2023-02-13T18:08:03.198Z,99588.69
2023-02-13T18:10:34.291Z,99584.34
2023-02-13T18:13:05.061Z,99588.84
2023-02-13T18:15:33.685Z,99587.16
2023-02-13T18:18:02.261Z,99589.00
2023-02-13T18:20:30.553Z,99583.91
2023-02-13T18:22:58.847Z,99580.41
2023-02-13T18:25:29.202Z,99581.34
2023-02-13T18:27:57.452Z,99578.78
2023-02-13T18:30:26.211Z,99577.16
2023-02-13T18:32:56.671Z,99580.84
2023-02-13T18:35:25.260Z,99582.63
2023-02-13T18:37:53.530Z,99580.13
2023-02-13T18:40:22.512Z,99582.00
2023-02-13T18:42:52.465Z,99577.75
2023-02-13T18:45:20.949Z,99577.75
2023-02-13T18:47:49.202Z,99581.34
2023-02-13T18:50:17.589Z,99572.72
2023-02-13T18:52:46.717Z,99581.66
2023-02-13T18:55:14.944Z,99582.72
2023-02-13T18:57:45.380Z,99584.69
2023-02-13T19:00:17.299Z,99584.00
2023-02-13T19:02:45.634Z,99578.88
2023-02-13T19:05:13.955Z,99584.31
2023-02-13T19:07:42.241Z,99587.13
2023-02-13T19:10:11.414Z,99589.91
2023-02-13T19:12:39.711Z,99583.09
2023-02-13T19:15:09.533Z,99589.41
2023-02-13T19:17:39.804Z,99584.31
2023-02-13T19:20:09.879Z,99585.41
2023-02-13T19:22:38.231Z,99590.81
2023-02-13T19:25:07.173Z,99594.56
2023-02-13T19:27:39.032Z,99598.22
2023-02-13T19:30:09.655Z,99593.09
2023-02-13T19:32:39.418Z,99588.00
2023-02-13T19:35:08.537Z,99578.44
2023-02-13T19:37:43.886Z,99581.25
2023-02-13T19:40:14.228Z,99594.66
2023-02-13T19:42:42.631Z,99590.38
2023-02-13T19:45:11.635Z,99604.72
2023-02-13T19:47:41.298Z,99612.72
2023-02-13T19:50:10.937Z,99605.97
2023-02-13T19:52:39.365Z,99611.56
2023-02-13T19:55:08.307Z,99617.03
2023-02-13T19:57:36.619Z,99614.72
2023-02-13T20:00:06.072Z,99611.44
2023-02-13T20:02:34.307Z,99611.66
2023-02-13T20:05:07.021Z,99606.69
2023-02-13T20:07:35.321Z,99606.06
2023-02-13T20:10:03.599Z,99613.41
2023-02-13T20:12:31.846Z,99611.06
2023-02-13T20:15:00.153Z,99600.81
2023-02-13T20:17:28.424Z,99606.22
2023-02-13T20:19:56.844Z,99595.97
2023-02-13T20:22:26.553Z,99600.53
2023-02-13T20:24:54.845Z,99594.66
2023-02-13T20:27:23.137Z,99598.34
2023-02-13T20:29:53.303Z,99600.28
2023-02-13T20:32:27.376Z,99589.16
2023-02-13T20:34:59.874Z,99589.38
2023-02-13T20:37:29.796Z,99583.50
2023-02-13T20:39:58.072Z,99588.03
2023-02-13T20:42:26.352Z,99581.34
2023-02-13T20:44:54.804Z,99575.50
2023-02-13T20:47:23.050Z,99575.78
2023-02-13T20:49:51.327Z,99576.19
2023-02-13T20:52:19.605Z,99568.56
2023-02-13T20:54:49.288Z,99574.13
2023-02-13T20:57:17.549Z,99570.81
2023-02-13T20:59:45.950Z,99575.34
2023-02-13T21:02:14.408Z,99566.72
2023-02-13T21:04:42.766Z,99563.47
2023-02-13T21:07:11.193Z,99566.28
2023-02-13T21:09:39.732Z,99572.63
2023-02-13T21:12:09.416Z,99569.59
2023-02-13T21:14:37.817Z,99569.97
2023-02-13T21:17:06.081Z,99563.34
2023-02-13T21:19:35.223Z,99569.75
2023-02-13T21:22:12.202Z,99571.81
2023-02-13T21:24:43.090Z,99562.63
2023-02-13T21:27:13.044Z,99560.13
2023-02-13T21:29:41.359Z,99560.31
2023-02-13T21:32:09.753Z,99559.50
2023-02-13T21:34:38.142Z,99551.88
2023-02-13T21:37:06.425Z,99555.38
2023-02-13T21:39:34.660Z,99559.81
2023-02-13T21:42:04.449Z,99560.00
2023-02-13T21:44:34.060Z,99558.25
2023-02-13T21:47:02.364Z,99556.56
2023-02-13T21:49:30.668Z,99555.75
2023-02-13T21:51:59.009Z,99560.25
2023-02-13T21:54:27.446Z,99565.56
2023-02-13T21:56:55.732Z,99569.41
2023-02-13T21:59:23.939Z,99574.22
2023-02-13T22:01:54.761Z,99573.06
2023-02-13T22:04:23.189Z,99573.38
2023-02-13T22:06:53.544Z,99573.72
2023-02-13T22:09:23.065Z,99575.91
2023-02-13T22:11:53.984Z,99566.78
2023-02-13T22:14:22.638Z,99569.72
2023-02-13T22:16:53.493Z,99564.66
2023-02-13T22:19:21.905Z,99563.34
2023-02-13T22:21:50.195Z,99560.34
2023-02-13T22:24:18.459Z,99557.94
2023-02-13T22:26:46.832Z,99552.81
2023-02-13T22:29:17.790Z,99559.69
2023-02-13T22:31:46.345Z,99557.22
2023-02-13T22:34:16.419Z,99556.41
2023-02-13T22:36:44.682Z,99564.28
2023-02-13T22:39:13.366Z,99568.69
2023-02-13T22:41:44.482Z,99563.44
2023-02-13T22:44:12.738Z,99563.56
2023-02-13T22:46:41.014Z,99559.28
2023-02-13T22:49:09.352Z,99570.69
2023-02-13T22:51:39.051Z,99573.41
2023-02-13T22:54:07.569Z,99572.69
2023-02-13T22:56:35.929Z,99576.13
2023-02-13T22:59:04.595Z,99577.94
2023-02-13T23:01:32.845Z,99572.69
2023-02-13T23:04:01.233Z,99574.69
2023-02-13T23:06:29.620Z,99582.44
2023-02-13T23:08:59.378Z,99590.34
2023-02-13T23:11:46.794Z,99579.16
2023-02-13T23:14:16.332Z,99588.66
2023-02-13T23:17:02.558Z,99595.69
2023-02-13T23:19:31.137Z,99600.94
2023-02-13T23:21:59.686Z,99603.53
2023-02-13T23:24:30.544Z,99592.25
2023-02-13T23:26:59.084Z,99600.81
2023-02-13T23:29:27.821Z,99595.53
2023-02-13T23:31:56.208Z,99594.63
2023-02-13T23:34:24.586Z,99599.09
2023-02-13T23:36:52.876Z,99603.34
2023-02-13T23:39:21.544Z,99605.91
2023-02-13T23:41:51.224Z,99591.84
2023-02-13T23:44:19.705Z,99588.31
2023-02-13T23:46:48.105Z,99596.97
2023-02-13T23:49:16.610Z,99595.06
2023-02-13T23:51:44.893Z,99591.50
2023-02-13T23:54:16.673Z,99592.31
2023-02-13T23:56:45.644Z,99593.91
2023-02-13T23:59:16.746Z,99587.75
